sensor_id;sensor_type;location;lat;lon;timestamp;temperature;humidity
41904;DHT22;27586;51.124;4.182;2023-07-09T00:02:22;24.70;99.90
41904;DHT22;27586;51.124;4.182;2023-07-09T00:04:48;24.70;99.90
41904;DHT22;27586;51.124;4.182;2023-07-09T00:07:33;24.70;99.90
41904;DHT22;27586;51.124;4.182;2023-07-09T00:09:59;24.60;99.90
41904;DHT22;27586;51.124;4.182;2023-07-09T00:12:25;24.60;99.90
41904;DHT22;27586;51.124;4.182;2023-07-09T00:14:51;24.60;99.90
41904;DHT22;27586;51.124;4.182;2023-07-09T00:17:29;24.60;99.90
41904;DHT22;27586;51.124;4.182;2023-07-09T00:19:56;24.60;99.90
41904;DHT22;27586;51.124;4.182;2023-07-09T00:22:22;24.40;99.90
41904;DHT22;27586;51.124;4.182;2023-07-09T00:24:50;24.50;99.90
41904;DHT22;27586;51.124;4.182;2023-07-09T00:27:20;24.60;99.90
41904;DHT22;27586;51.124;4.182;2023-07-09T00:29:47;24.50;99.90
41904;DHT22;27586;51.124;4.182;2023-07-09T00:32:16;24.40;99.90
41904;DHT22;27586;51.124;4.182;2023-07-09T00:34:48;24.30;99.90
41904;DHT22;27586;51.124;4.182;2023-07-09T00:37:20;24.40;99.90
41904;DHT22;27586;51.124;4.182;2023-07-09T00:39:47;24.40;99.90
41904;DHT22;27586;51.124;4.182;2023-07-09T00:42:16;24.40;99.90
41904;DHT22;27586;51.124;4.182;2023-07-09T00:44:49;24.30;99.90
41904;DHT22;27586;51.124;4.182;2023-07-09T00:47:26;24.30;99.90
41904;DHT22;27586;51.124;4.182;2023-07-09T00:50:03;24.30;99.90
41904;DHT22;27586;51.124;4.182;2023-07-09T00:52:46;24.20;99.90
41904;DHT22;27586;51.124;4.182;2023-07-09T00:55:17;24.20;99.90
41904;DHT22;27586;51.124;4.182;2023-07-09T00:57:46;24.20;99.90
41904;DHT22;27586;51.124;4.182;2023-07-09T01:00:58;24.10;99.90
41904;DHT22;27586;51.124;4.182;2023-07-09T01:03:36;24.10;99.90
41904;DHT22;27586;51.124;4.182;2023-07-09T01:06:02;24.10;99.90
41904;DHT22;27586;51.124;4.182;2023-07-09T01:08:32;24.00;99.90
41904;DHT22;27586;51.124;4.182;2023-07-09T01:10:58;23.90;99.90
41904;DHT22;27586;51.124;4.182;2023-07-09T01:13:25;24.00;99.90
41904;DHT22;27586;51.124;4.182;2023-07-09T01:15:52;24.00;99.90
41904;DHT22;27586;51.124;4.182;2023-07-09T01:18:19;23.90;99.90
41904;DHT22;27586;51.124;4.182;2023-07-09T01:20:44;24.00;99.90
41904;DHT22;27586;51.124;4.182;2023-07-09T01:23:12;24.10;99.90
41904;DHT22;27586;51.124;4.182;2023-07-09T01:25:45;24.00;99.90
41904;DHT22;27586;51.124;4.182;2023-07-09T01:28:11;23.90;99.90
41904;DHT22;27586;51.124;4.182;2023-07-09T01:30:39;23.90;99.90
41904;DHT22;27586;51.124;4.182;2023-07-09T01:33:05;23.90;99.90
41904;DHT22;27586;51.124;4.182;2023-07-09T01:35:33;23.90;99.90
41904;DHT22;27586;51.124;4.182;2023-07-09T01:37:59;23.80;99.90
41904;DHT22;27586;51.124;4.182;2023-07-09T01:40:27;23.80;99.90
41904;DHT22;27586;51.124;4.182;2023-07-09T01:42:53;23.90;99.90
41904;DHT22;27586;51.124;4.182;2023-07-09T01:45:21;23.90;99.90
41904;DHT22;27586;51.124;4.182;2023-07-09T01:47:46;23.90;99.90
41904;DHT22;27586;51.124;4.182;2023-07-09T01:50:12;23.90;99.90
41904;DHT22;27586;51.124;4.182;2023-07-09T01:52:40;23.80;99.90
41904;DHT22;27586;51.124;4.182;2023-07-09T01:55:09;23.80;99.90
41904;DHT22;27586;51.124;4.182;2023-07-09T01:57:35;23.80;99.90
41904;DHT22;27586;51.124;4.182;2023-07-09T02:00:08;23.70;99.90
41904;DHT22;27586;51.124;4.182;2023-07-09T02:02:35;23.70;99.90
41904;DHT22;27586;51.124;4.182;2023-07-09T02:05:01;23.70;99.90
41904;DHT22;27586;51.124;4.182;2023-07-09T02:07:27;23.70;99.90
41904;DHT22;27586;51.124;4.182;2023-07-09T02:09:53;23.70;99.90
41904;DHT22;27586;51.124;4.182;2023-07-09T02:12:19;23.70;99.90
41904;DHT22;27586;51.124;4.182;2023-07-09T02:14:46;23.60;99.90
41904;DHT22;27586;51.124;4.182;2023-07-09T02:17:13;23.60;99.90
41904;DHT22;27586;51.124;4.182;2023-07-09T02:19:39;23.50;99.90
41904;DHT22;27586;51.124;4.182;2023-07-09T02:22:06;23.50;99.90
41904;DHT22;27586;51.124;4.182;2023-07-09T02:24:32;23.40;99.90
41904;DHT22;27586;51.124;4.182;2023-07-09T02:27:00;23.30;99.90
41904;DHT22;27586;51.124;4.182;2023-07-09T02:29:27;23.30;99.90
41904;DHT22;27586;51.124;4.182;2023-07-09T02:31:56;23.20;99.90
41904;DHT22;27586;51.124;4.182;2023-07-09T02:34:22;23.20;99.90
41904;DHT22;27586;51.124;4.182;2023-07-09T02:36:55;23.10;99.90
41904;DHT22;27586;51.124;4.182;2023-07-09T02:39:22;23.10;99.90
41904;DHT22;27586;51.124;4.182;2023-07-09T02:41:48;23.10;99.90
41904;DHT22;27586;51.124;4.182;2023-07-09T02:44:15;23.00;99.90
41904;DHT22;27586;51.124;4.182;2023-07-09T02:46:41;22.90;99.90
41904;DHT22;27586;51.124;4.182;2023-07-09T02:49:09;22.70;99.90
41904;DHT22;27586;51.124;4.182;2023-07-09T02:51:35;22.60;99.90
41904;DHT22;27586;51.124;4.182;2023-07-09T02:54:02;22.50;99.90
41904;DHT22;27586;51.124;4.182;2023-07-09T02:56:28;22.40;99.90
41904;DHT22;27586;51.124;4.182;2023-07-09T02:58:54;22.30;99.90
41904;DHT22;27586;51.124;4.182;2023-07-09T03:01:20;22.20;99.90
41904;DHT22;27586;51.124;4.182;2023-07-09T03:03:54;22.10;99.90
41904;DHT22;27586;51.124;4.182;2023-07-09T03:06:24;22.20;99.90
41904;DHT22;27586;51.124;4.182;2023-07-09T03:08:51;22.20;99.90
41904;DHT22;27586;51.124;4.182;2023-07-09T03:11:18;22.20;99.90
41904;DHT22;27586;51.124;4.182;2023-07-09T03:13:44;22.10;99.90
41904;DHT22;27586;51.124;4.182;2023-07-09T03:16:10;22.00;99.90
41904;DHT22;27586;51.124;4.182;2023-07-09T03:18:35;22.00;99.90
41904;DHT22;27586;51.124;4.182;2023-07-09T03:21:01;22.20;99.90
41904;DHT22;27586;51.124;4.182;2023-07-09T03:23:27;22.10;99.90
41904;DHT22;27586;51.124;4.182;2023-07-09T03:25:54;22.00;99.90
41904;DHT22;27586;51.124;4.182;2023-07-09T03:28:19;22.00;99.90
41904;DHT22;27586;51.124;4.182;2023-07-09T03:30:47;22.10;99.90
41904;DHT22;27586;51.124;4.182;2023-07-09T03:33:14;22.00;99.90
41904;DHT22;27586;51.124;4.182;2023-07-09T03:35:41;22.00;99.90
41904;DHT22;27586;51.124;4.182;2023-07-09T03:38:08;22.10;99.90
41904;DHT22;27586;51.124;4.182;2023-07-09T03:40:34;22.10;99.90
41904;DHT22;27586;51.124;4.182;2023-07-09T03:43:00;22.00;99.90
41904;DHT22;27586;51.124;4.182;2023-07-09T03:45:26;21.80;99.90
41904;DHT22;27586;51.124;4.182;2023-07-09T03:47:52;22.00;99.90
41904;DHT22;27586;51.124;4.182;2023-07-09T03:50:17;21.80;99.90
41904;DHT22;27586;51.124;4.182;2023-07-09T03:52:43;21.90;99.90
41904;DHT22;27586;51.124;4.182;2023-07-09T03:55:09;21.80;99.90
41904;DHT22;27586;51.124;4.182;2023-07-09T03:57:35;21.90;99.90
41904;DHT22;27586;51.124;4.182;2023-07-09T04:00:03;21.90;99.90
41904;DHT22;27586;51.124;4.182;2023-07-09T04:02:29;21.90;99.90
41904;DHT22;27586;51.124;4.182;2023-07-09T04:04:55;22.00;99.90
41904;DHT22;27586;51.124;4.182;2023-07-09T04:07:20;21.90;99.90
41904;DHT22;27586;51.124;4.182;2023-07-09T04:09:46;22.00;99.90
41904;DHT22;27586;51.124;4.182;2023-07-09T04:12:11;22.00;99.90
41904;DHT22;27586;51.124;4.182;2023-07-09T04:14:37;22.00;99.90
41904;DHT22;27586;51.124;4.182;2023-07-09T04:17:03;21.90;99.90
41904;DHT22;27586;51.124;4.182;2023-07-09T04:19:29;21.80;99.90
41904;DHT22;27586;51.124;4.182;2023-07-09T04:21:55;21.90;99.90
41904;DHT22;27586;51.124;4.182;2023-07-09T04:24:21;21.90;99.90
41904;DHT22;27586;51.124;4.182;2023-07-09T04:26:47;22.00;99.90
41904;DHT22;27586;51.124;4.182;2023-07-09T04:29:13;21.90;99.90
41904;DHT22;27586;51.124;4.182;2023-07-09T04:31:40;22.00;99.90
41904;DHT22;27586;51.124;4.182;2023-07-09T04:34:06;22.00;99.90
41904;DHT22;27586;51.124;4.182;2023-07-09T04:36:32;21.90;99.90
41904;DHT22;27586;51.124;4.182;2023-07-09T04:38:58;21.90;99.90
41904;DHT22;27586;51.124;4.182;2023-07-09T04:41:24;21.80;99.90
41904;DHT22;27586;51.124;4.182;2023-07-09T04:43:50;21.50;99.90
41904;DHT22;27586;51.124;4.182;2023-07-09T04:46:15;21.50;99.90
41904;DHT22;27586;51.124;4.182;2023-07-09T04:48:41;21.70;99.90
41904;DHT22;27586;51.124;4.182;2023-07-09T04:51:07;21.70;99.90
41904;DHT22;27586;51.124;4.182;2023-07-09T04:53:33;21.70;99.90
41904;DHT22;27586;51.124;4.182;2023-07-09T04:55:59;21.70;99.90
41904;DHT22;27586;51.124;4.182;2023-07-09T04:58:24;21.80;99.90
41904;DHT22;27586;51.124;4.182;2023-07-09T05:00:50;21.80;99.90
41904;DHT22;27586;51.124;4.182;2023-07-09T05:03:18;21.90;99.90
41904;DHT22;27586;51.124;4.182;2023-07-09T05:05:47;22.00;99.90
41904;DHT22;27586;51.124;4.182;2023-07-09T05:08:13;22.00;99.90
41904;DHT22;27586;51.124;4.182;2023-07-09T05:10:48;22.00;99.90
41904;DHT22;27586;51.124;4.182;2023-07-09T05:13:15;22.00;99.90
41904;DHT22;27586;51.124;4.182;2023-07-09T05:15:45;22.00;99.90
41904;DHT22;27586;51.124;4.182;2023-07-09T05:18:13;22.10;99.90
41904;DHT22;27586;51.124;4.182;2023-07-09T05:20:39;22.20;99.90
41904;DHT22;27586;51.124;4.182;2023-07-09T05:23:06;22.10;99.90
41904;DHT22;27586;51.124;4.182;2023-07-09T05:25:32;22.20;99.90
41904;DHT22;27586;51.124;4.182;2023-07-09T05:27:57;22.20;99.90
41904;DHT22;27586;51.124;4.182;2023-07-09T05:30:23;22.30;99.90
41904;DHT22;27586;51.124;4.182;2023-07-09T05:32:49;22.20;99.90
41904;DHT22;27586;51.124;4.182;2023-07-09T05:35:15;22.30;99.90
41904;DHT22;27586;51.124;4.182;2023-07-09T05:37:40;22.30;99.90
41904;DHT22;27586;51.124;4.182;2023-07-09T05:40:07;22.20;99.90
41904;DHT22;27586;51.124;4.182;2023-07-09T05:42:34;22.30;99.90
41904;DHT22;27586;51.124;4.182;2023-07-09T05:45:00;22.40;99.90
41904;DHT22;27586;51.124;4.182;2023-07-09T05:47:26;22.50;99.90
41904;DHT22;27586;51.124;4.182;2023-07-09T05:49:52;22.70;99.90
41904;DHT22;27586;51.124;4.182;2023-07-09T05:52:20;22.70;99.90
41904;DHT22;27586;51.124;4.182;2023-07-09T05:54:48;22.80;99.90
41904;DHT22;27586;51.124;4.182;2023-07-09T05:57:14;22.80;99.90
41904;DHT22;27586;51.124;4.182;2023-07-09T05:59:39;22.80;99.90
41904;DHT22;27586;51.124;4.182;2023-07-09T06:02:11;22.90;99.90
41904;DHT22;27586;51.124;4.182;2023-07-09T06:04:37;22.90;99.90
41904;DHT22;27586;51.124;4.182;2023-07-09T06:07:02;22.90;99.90
41904;DHT22;27586;51.124;4.182;2023-07-09T06:09:30;23.10;99.90
41904;DHT22;27586;51.124;4.182;2023-07-09T06:11:56;23.00;99.90
41904;DHT22;27586;51.124;4.182;2023-07-09T06:14:21;23.20;99.90
41904;DHT22;27586;51.124;4.182;2023-07-09T06:16:47;23.30;99.90
41904;DHT22;27586;51.124;4.182;2023-07-09T06:19:13;23.30;99.90
41904;DHT22;27586;51.124;4.182;2023-07-09T06:21:39;23.40;99.90
41904;DHT22;27586;51.124;4.182;2023-07-09T06:24:06;23.40;99.90
41904;DHT22;27586;51.124;4.182;2023-07-09T06:26:32;23.50;99.90
41904;DHT22;27586;51.124;4.182;2023-07-09T06:28:58;23.50;99.90
41904;DHT22;27586;51.124;4.182;2023-07-09T06:31:24;23.50;99.90
41904;DHT22;27586;51.124;4.182;2023-07-09T06:33:50;23.50;99.90
41904;DHT22;27586;51.124;4.182;2023-07-09T06:36:17;23.50;99.90
41904;DHT22;27586;51.124;4.182;2023-07-09T06:38:44;23.60;99.90
41904;DHT22;27586;51.124;4.182;2023-07-09T06:41:10;23.70;99.90
41904;DHT22;27586;51.124;4.182;2023-07-09T06:43:35;23.70;99.90
41904;DHT22;27586;51.124;4.182;2023-07-09T06:46:06;23.80;99.90
41904;DHT22;27586;51.124;4.182;2023-07-09T06:48:32;23.90;99.90
41904;DHT22;27586;51.124;4.182;2023-07-09T06:50:59;23.90;99.90
41904;DHT22;27586;51.124;4.182;2023-07-09T06:53:26;24.00;99.90
41904;DHT22;27586;51.124;4.182;2023-07-09T06:55:53;23.90;99.90
41904;DHT22;27586;51.124;4.182;2023-07-09T06:58:21;24.00;99.90
41904;DHT22;27586;51.124;4.182;2023-07-09T07:00:48;24.00;99.90
41904;DHT22;27586;51.124;4.182;2023-07-09T07:03:14;23.90;99.90
41904;DHT22;27586;51.124;4.182;2023-07-09T07:05:49;23.80;99.90
41904;DHT22;27586;51.124;4.182;2023-07-09T07:08:17;23.80;99.90
41904;DHT22;27586;51.124;4.182;2023-07-09T07:10:44;23.60;99.90
41904;DHT22;27586;51.124;4.182;2023-07-09T07:13:09;23.40;99.90
41904;DHT22;27586;51.124;4.182;2023-07-09T07:15:37;23.60;99.90
41904;DHT22;27586;51.124;4.182;2023-07-09T07:18:03;23.90;99.90
41904;DHT22;27586;51.124;4.182;2023-07-09T07:20:29;24.10;99.90
41904;DHT22;27586;51.124;4.182;2023-07-09T07:22:55;24.20;99.90
41904;DHT22;27586;51.124;4.182;2023-07-09T07:25:22;24.10;99.90
41904;DHT22;27586;51.124;4.182;2023-07-09T07:27:47;24.10;99.90
41904;DHT22;27586;51.124;4.182;2023-07-09T07:30:13;24.30;99.90
41904;DHT22;27586;51.124;4.182;2023-07-09T07:32:44;24.50;99.90
41904;DHT22;27586;51.124;4.182;2023-07-09T07:35:10;24.50;99.90
41904;DHT22;27586;51.124;4.182;2023-07-09T07:37:36;24.60;99.90
41904;DHT22;27586;51.124;4.182;2023-07-09T07:40:01;24.60;99.90
41904;DHT22;27586;51.124;4.182;2023-07-09T07:42:27;24.80;99.90
41904;DHT22;27586;51.124;4.182;2023-07-09T07:44:53;24.70;99.90
41904;DHT22;27586;51.124;4.182;2023-07-09T07:47:19;24.80;99.90
41904;DHT22;27586;51.124;4.182;2023-07-09T07:49:44;25.00;99.90
41904;DHT22;27586;51.124;4.182;2023-07-09T07:52:10;24.80;99.90
41904;DHT22;27586;51.124;4.182;2023-07-09T07:54:36;24.60;99.90
41904;DHT22;27586;51.124;4.182;2023-07-09T07:57:03;24.60;99.90
41904;DHT22;27586;51.124;4.182;2023-07-09T07:59:28;24.40;99.90
41904;DHT22;27586;51.124;4.182;2023-07-09T08:01:54;24.30;99.90
41904;DHT22;27586;51.124;4.182;2023-07-09T08:04:20;24.40;99.90
41904;DHT22;27586;51.124;4.182;2023-07-09T08:06:46;24.50;99.90
41904;DHT22;27586;51.124;4.182;2023-07-09T08:09:11;24.40;99.90
41904;DHT22;27586;51.124;4.182;2023-07-09T08:11:37;24.30;99.90
41904;DHT22;27586;51.124;4.182;2023-07-09T08:14:03;24.50;99.90
41904;DHT22;27586;51.124;4.182;2023-07-09T08:16:29;24.80;99.90
41904;DHT22;27586;51.124;4.182;2023-07-09T08:18:54;24.90;99.90
41904;DHT22;27586;51.124;4.182;2023-07-09T08:21:21;25.10;99.90
41904;DHT22;27586;51.124;4.182;2023-07-09T08:23:47;25.10;99.90
41904;DHT22;27586;51.124;4.182;2023-07-09T08:26:13;25.20;99.90
41904;DHT22;27586;51.124;4.182;2023-07-09T08:28:39;25.30;99.90
41904;DHT22;27586;51.124;4.182;2023-07-09T08:31:04;25.30;99.90
41904;DHT22;27586;51.124;4.182;2023-07-09T08:33:30;25.50;99.90
41904;DHT22;27586;51.124;4.182;2023-07-09T08:35:56;25.50;99.90
41904;DHT22;27586;51.124;4.182;2023-07-09T08:38:22;25.60;99.90
41904;DHT22;27586;51.124;4.182;2023-07-09T08:40:59;25.60;99.90
41904;DHT22;27586;51.124;4.182;2023-07-09T08:46:29;25.50;99.90
41904;DHT22;27586;51.124;4.182;2023-07-09T08:48:59;25.70;99.90
41904;DHT22;27586;51.124;4.182;2023-07-09T08:51:38;25.90;99.90
41904;DHT22;27586;51.124;4.182;2023-07-09T08:54:12;25.80;99.90
41904;DHT22;27586;51.124;4.182;2023-07-09T08:56:38;25.70;99.90
41904;DHT22;27586;51.124;4.182;2023-07-09T08:59:05;26.10;99.90
41904;DHT22;27586;51.124;4.182;2023-07-09T09:01:38;25.90;99.90
41904;DHT22;27586;51.124;4.182;2023-07-09T09:04:15;25.80;99.90
41904;DHT22;27586;51.124;4.182;2023-07-09T09:06:47;25.90;99.90
41904;DHT22;27586;51.124;4.182;2023-07-09T09:14:29;25.90;99.90
41904;DHT22;27586;51.124;4.182;2023-07-09T09:16:57;26.10;99.90
41904;DHT22;27586;51.124;4.182;2023-07-09T09:19:33;26.30;99.90
41904;DHT22;27586;51.124;4.182;2023-07-09T09:22:09;26.20;99.90
41904;DHT22;27586;51.124;4.182;2023-07-09T09:27:25;26.30;99.90
41904;DHT22;27586;51.124;4.182;2023-07-09T09:29:50;26.40;99.90
41904;DHT22;27586;51.124;4.182;2023-07-09T09:32:27;26.50;99.90
41904;DHT22;27586;51.124;4.182;2023-07-09T09:34:54;26.70;99.90
41904;DHT22;27586;51.124;4.182;2023-07-09T09:37:28;26.60;99.90
41904;DHT22;27586;51.124;4.182;2023-07-09T09:39:54;26.50;99.90
41904;DHT22;27586;51.124;4.182;2023-07-09T09:42:20;27.00;99.90
41904;DHT22;27586;51.124;4.182;2023-07-09T09:44:48;27.20;99.90
41904;DHT22;27586;51.124;4.182;2023-07-09T09:47:15;27.00;99.90
41904;DHT22;27586;51.124;4.182;2023-07-09T09:49:41;27.00;99.90
41904;DHT22;27586;51.124;4.182;2023-07-09T09:52:17;27.10;99.90
41904;DHT22;27586;51.124;4.182;2023-07-09T09:55:17;27.30;99.90
41904;DHT22;27586;51.124;4.182;2023-07-09T09:57:51;27.60;99.90
41904;DHT22;27586;51.124;4.182;2023-07-09T10:00:17;27.40;99.90
41904;DHT22;27586;51.124;4.182;2023-07-09T10:02:43;27.00;99.90
41904;DHT22;27586;51.124;4.182;2023-07-09T10:05:15;26.70;99.90
41904;DHT22;27586;51.124;4.182;2023-07-09T10:07:53;26.60;99.90
41904;DHT22;27586;51.124;4.182;2023-07-09T10:10:23;26.80;99.90
41904;DHT22;27586;51.124;4.182;2023-07-09T10:13:01;27.00;99.90
41904;DHT22;27586;51.124;4.182;2023-07-09T10:21:29;26.80;99.90
41904;DHT22;27586;51.124;4.182;2023-07-09T10:26:39;26.80;99.90
41904;DHT22;27586;51.124;4.182;2023-07-09T10:35:04;27.60;99.90
41904;DHT22;27586;51.124;4.182;2023-07-09T10:39:59;27.40;99.90
41904;DHT22;27586;51.124;4.182;2023-07-09T10:42:45;27.20;99.90
41904;DHT22;27586;51.124;4.182;2023-07-09T10:45:15;27.20;99.90
41904;DHT22;27586;51.124;4.182;2023-07-09T10:47:48;27.00;99.90
41904;DHT22;27586;51.124;4.182;2023-07-09T10:50:23;26.80;99.90
41904;DHT22;27586;51.124;4.182;2023-07-09T10:52:54;26.50;99.90
41904;DHT22;27586;51.124;4.182;2023-07-09T10:55:33;26.30;99.90
41904;DHT22;27586;51.124;4.182;2023-07-09T10:58:11;26.20;99.90
41904;DHT22;27586;51.124;4.182;2023-07-09T11:00:41;25.90;99.90
41904;DHT22;27586;51.124;4.182;2023-07-09T11:03:49;25.80;99.90
41904;DHT22;27586;51.124;4.182;2023-07-09T11:08:57;26.00;99.90
41904;DHT22;27586;51.124;4.182;2023-07-09T11:11:36;26.20;99.90
41904;DHT22;27586;51.124;4.182;2023-07-09T11:14:09;26.20;99.90
41904;DHT22;27586;51.124;4.182;2023-07-09T11:16:40;26.30;99.90
41904;DHT22;27586;51.124;4.182;2023-07-09T11:19:14;26.50;99.90
41904;DHT22;27586;51.124;4.182;2023-07-09T11:22:13;26.70;99.90
41904;DHT22;27586;51.124;4.182;2023-07-09T11:24:51;26.70;99.90
41904;DHT22;27586;51.124;4.182;2023-07-09T11:27:22;26.70;99.90
41904;DHT22;27586;51.124;4.182;2023-07-09T11:29:59;26.70;99.90
41904;DHT22;27586;51.124;4.182;2023-07-09T11:32:25;26.60;99.90
41904;DHT22;27586;51.124;4.182;2023-07-09T11:34:51;26.50;99.90
41904;DHT22;27586;51.124;4.182;2023-07-09T11:37:17;26.70;99.90
41904;DHT22;27586;51.124;4.182;2023-07-09T11:39:46;26.90;99.90
41904;DHT22;27586;51.124;4.182;2023-07-09T11:42:26;27.10;99.90
41904;DHT22;27586;51.124;4.182;2023-07-09T11:47:30;27.20;99.90
41904;DHT22;27586;51.124;4.182;2023-07-09T11:50:05;26.90;99.90
41904;DHT22;27586;51.124;4.182;2023-07-09T11:52:52;26.30;99.90
41904;DHT22;27586;51.124;4.182;2023-07-09T11:55:41;26.30;99.90
41904;DHT22;27586;51.124;4.182;2023-07-09T11:58:11;26.30;99.90
41904;DHT22;27586;51.124;4.182;2023-07-09T12:00:42;26.30;99.90
41904;DHT22;27586;51.124;4.182;2023-07-09T12:03:38;26.20;99.90
41904;DHT22;27586;51.124;4.182;2023-07-09T12:06:03;25.80;99.90
41904;DHT22;27586;51.124;4.182;2023-07-09T12:08:35;25.70;99.90
41904;DHT22;27586;51.124;4.182;2023-07-09T12:11:01;25.40;99.90
41904;DHT22;27586;51.124;4.182;2023-07-09T12:13:27;25.60;99.90
41904;DHT22;27586;51.124;4.182;2023-07-09T12:15:52;25.70;99.90
41904;DHT22;27586;51.124;4.182;2023-07-09T12:18:18;25.70;99.90
41904;DHT22;27586;51.124;4.182;2023-07-09T12:20:54;25.70;99.90
41904;DHT22;27586;51.124;4.182;2023-07-09T12:23:31;25.70;99.90
41904;DHT22;27586;51.124;4.182;2023-07-09T12:26:00;25.50;99.90
41904;DHT22;27586;51.124;4.182;2023-07-09T12:28:27;25.60;99.90
41904;DHT22;27586;51.124;4.182;2023-07-09T12:30:54;25.50;99.90
41904;DHT22;27586;51.124;4.182;2023-07-09T12:33:25;25.40;99.90
41904;DHT22;27586;51.124;4.182;2023-07-09T12:36:04;25.40;99.90
41904;DHT22;27586;51.124;4.182;2023-07-09T12:38:40;25.30;99.90
41904;DHT22;27586;51.124;4.182;2023-07-09T12:41:22;25.30;99.90
41904;DHT22;27586;51.124;4.182;2023-07-09T12:43:49;25.20;99.90
41904;DHT22;27586;51.124;4.182;2023-07-09T12:46:16;25.10;99.90
41904;DHT22;27586;51.124;4.182;2023-07-09T12:48:43;25.00;99.90
41904;DHT22;27586;51.124;4.182;2023-07-09T12:51:16;24.90;99.90
41904;DHT22;27586;51.124;4.182;2023-07-09T12:53:43;24.70;99.90
41904;DHT22;27586;51.124;4.182;2023-07-09T12:56:12;24.60;99.90
41904;DHT22;27586;51.124;4.182;2023-07-09T12:58:39;24.10;99.90
41904;DHT22;27586;51.124;4.182;2023-07-09T13:01:07;24.10;99.90
41904;DHT22;27586;51.124;4.182;2023-07-09T13:03:34;23.90;99.90
41904;DHT22;27586;51.124;4.182;2023-07-09T13:06:03;23.80;99.90
41904;DHT22;27586;51.124;4.182;2023-07-09T13:08:32;23.80;99.90
41904;DHT22;27586;51.124;4.182;2023-07-09T13:10:59;23.70;99.90
41904;DHT22;27586;51.124;4.182;2023-07-09T13:13:25;23.40;99.90
41904;DHT22;27586;51.124;4.182;2023-07-09T13:16:01;23.10;99.90
41904;DHT22;27586;51.124;4.182;2023-07-09T13:18:27;23.00;99.90
41904;DHT22;27586;51.124;4.182;2023-07-09T13:20:55;22.80;99.90
41904;DHT22;27586;51.124;4.182;2023-07-09T13:23:28;22.80;99.90
41904;DHT22;27586;51.124;4.182;2023-07-09T13:25:55;22.90;99.90
41904;DHT22;27586;51.124;4.182;2023-07-09T13:28:30;23.10;99.90
41904;DHT22;27586;51.124;4.182;2023-07-09T13:31:17;22.90;99.90
41904;DHT22;27586;51.124;4.182;2023-07-09T13:33:44;22.90;99.90
41904;DHT22;27586;51.124;4.182;2023-07-09T13:36:15;22.70;99.90
41904;DHT22;27586;51.124;4.182;2023-07-09T13:38:40;22.60;99.90
41904;DHT22;27586;51.124;4.182;2023-07-09T13:41:13;22.70;99.90
41904;DHT22;27586;51.124;4.182;2023-07-09T13:43:43;22.70;99.90
41904;DHT22;27586;51.124;4.182;2023-07-09T13:46:09;22.60;99.90
41904;DHT22;27586;51.124;4.182;2023-07-09T13:48:37;22.30;99.90
41904;DHT22;27586;51.124;4.182;2023-07-09T13:51:23;22.20;99.90
41904;DHT22;27586;51.124;4.182;2023-07-09T13:53:54;22.50;99.90
41904;DHT22;27586;51.124;4.182;2023-07-09T13:56:21;22.60;99.90
41904;DHT22;27586;51.124;4.182;2023-07-09T13:58:46;22.50;99.90
41904;DHT22;27586;51.124;4.182;2023-07-09T14:01:17;22.70;99.90
41904;DHT22;27586;51.124;4.182;2023-07-09T14:03:43;23.00;99.90
41904;DHT22;27586;51.124;4.182;2023-07-09T14:06:13;22.70;99.90
41904;DHT22;27586;51.124;4.182;2023-07-09T14:08:39;22.50;99.90
41904;DHT22;27586;51.124;4.182;2023-07-09T14:11:12;22.60;99.90
41904;DHT22;27586;51.124;4.182;2023-07-09T14:13:38;22.60;99.90
41904;DHT22;27586;51.124;4.182;2023-07-09T14:16:04;22.60;99.90
41904;DHT22;27586;51.124;4.182;2023-07-09T14:18:30;22.50;99.90
41904;DHT22;27586;51.124;4.182;2023-07-09T14:20:56;22.50;99.90
41904;DHT22;27586;51.124;4.182;2023-07-09T14:23:22;22.60;99.90
41904;DHT22;27586;51.124;4.182;2023-07-09T14:25:48;22.80;99.90
41904;DHT22;27586;51.124;4.182;2023-07-09T14:28:19;23.00;99.90
41904;DHT22;27586;51.124;4.182;2023-07-09T14:30:49;23.30;99.90
41904;DHT22;27586;51.124;4.182;2023-07-09T14:33:20;23.30;99.90
41904;DHT22;27586;51.124;4.182;2023-07-09T14:35:47;23.50;99.90
41904;DHT22;27586;51.124;4.182;2023-07-09T14:40:43;23.60;99.90
41904;DHT22;27586;51.124;4.182;2023-07-09T14:43:10;23.80;99.90
41904;DHT22;27586;51.124;4.182;2023-07-09T14:45:36;23.70;99.90
41904;DHT22;27586;51.124;4.182;2023-07-09T14:48:12;23.50;99.90
41904;DHT22;27586;51.124;4.182;2023-07-09T14:50:38;23.60;99.90
41904;DHT22;27586;51.124;4.182;2023-07-09T14:53:10;23.40;99.90
41904;DHT22;27586;51.124;4.182;2023-07-09T14:55:37;23.50;99.90
41904;DHT22;27586;51.124;4.182;2023-07-09T14:58:14;23.60;99.90
41904;DHT22;27586;51.124;4.182;2023-07-09T15:00:40;23.60;99.90
41904;DHT22;27586;51.124;4.182;2023-07-09T15:03:09;24.00;99.90
41904;DHT22;27586;51.124;4.182;2023-07-09T15:05:36;24.40;99.90
41904;DHT22;27586;51.124;4.182;2023-07-09T15:08:13;24.50;99.90
41904;DHT22;27586;51.124;4.182;2023-07-09T15:10:40;24.60;99.90
41904;DHT22;27586;51.124;4.182;2023-07-09T15:13:30;24.80;99.90
41904;DHT22;27586;51.124;4.182;2023-07-09T15:15:57;24.90;99.90
41904;DHT22;27586;51.124;4.182;2023-07-09T15:18:23;24.60;99.90
41904;DHT22;27586;51.124;4.182;2023-07-09T15:20:56;24.00;99.90
41904;DHT22;27586;51.124;4.182;2023-07-09T15:23:22;24.20;99.90
41904;DHT22;27586;51.124;4.182;2023-07-09T15:25:49;24.00;99.90
41904;DHT22;27586;51.124;4.182;2023-07-09T15:28:15;24.10;99.90
41904;DHT22;27586;51.124;4.182;2023-07-09T15:30:41;24.40;99.90
41904;DHT22;27586;51.124;4.182;2023-07-09T15:33:16;24.50;99.90
41904;DHT22;27586;51.124;4.182;2023-07-09T15:35:44;24.20;99.90
41904;DHT22;27586;51.124;4.182;2023-07-09T15:38:25;24.00;99.90
41904;DHT22;27586;51.124;4.182;2023-07-09T15:40:51;23.50;99.90
41904;DHT22;27586;51.124;4.182;2023-07-09T15:43:17;23.10;99.90
41904;DHT22;27586;51.124;4.182;2023-07-09T15:45:45;23.20;99.90
41904;DHT22;27586;51.124;4.182;2023-07-09T15:50:58;23.60;99.90
41904;DHT22;27586;51.124;4.182;2023-07-09T15:53:25;23.40;99.90
41904;DHT22;27586;51.124;4.182;2023-07-09T15:55:54;23.50;99.90
41904;DHT22;27586;51.124;4.182;2023-07-09T15:58:27;23.50;99.90
41904;DHT22;27586;51.124;4.182;2023-07-09T16:00:53;23.80;99.90
41904;DHT22;27586;51.124;4.182;2023-07-09T16:03:19;23.80;99.90
41904;DHT22;27586;51.124;4.182;2023-07-09T16:05:44;23.90;99.90
41904;DHT22;27586;51.124;4.182;2023-07-09T16:08:11;23.70;99.90
41904;DHT22;27586;51.124;4.182;2023-07-09T16:10:37;23.30;99.90
41904;DHT22;27586;51.124;4.182;2023-07-09T16:13:03;23.20;99.90
41904;DHT22;27586;51.124;4.182;2023-07-09T16:15:29;22.90;99.90
41904;DHT22;27586;51.124;4.182;2023-07-09T16:17:55;22.70;99.90
41904;DHT22;27586;51.124;4.182;2023-07-09T16:20:26;22.80;99.90